Salt Lake City, Utah
Traffic Map
Current Weather Conditions
Salt Lake City, Utah
Broken Clouds
Broken Clouds
93°
Feels Like: 93°
Wind Chill: 93° Ceiling: 17000
Heat Index: 93° Visibility: 10mi
Dew Point: 35° Wind: 13mph
Humidity: 13% Direction: 150° (SSE)
Pressure: 30.03in Gusts: 18mph
Raw Report DataKSLC 261854Z 15011G16KT 10SM FEW110 BKN170 BKN250 34/02 A3003 RMK AO2 SLP105 VIRGA ALQDS CB DSNT SW ACC SE-S AND DSNT SW T03390017
Traffic Incident Summary
Active as of:
Severity:
Category:
InformationThere was an issue retrieving the traffic information for this location. Please try a different location or try again shortly.
Advertisements
Track Severe Weather on mobile